sensor_id;sensor_type;location;lat;lon;timestamp;pressure;altitude;pressure_sealevel;temperature;humidity
41898;BME280;27576;53.366;-1.498;2022-09-16T00:00:16;100223.13;;;11.87;75.49
41898;BME280;27576;53.366;-1.498;2022-09-16T00:02:42;100217.94;;;11.84;75.27
41898;BME280;27576;53.366;-1.498;2022-09-16T00:05:08;100214.41;;;11.77;75.43
41898;BME280;27576;53.366;-1.498;2022-09-16T00:07:33;100209.16;;;11.65;75.46
41898;BME280;27576;53.366;-1.498;2022-09-16T00:09:59;100223.88;;;11.69;75.77
41898;BME280;27576;53.366;-1.498;2022-09-16T00:12:24;100189.13;;;11.42;76.49
41898;BME280;27576;53.366;-1.498;2022-09-16T00:14:53;100198.66;;;11.45;76.39
41898;BME280;27576;53.366;-1.498;2022-09-16T00:17:19;100232.47;;;11.57;76.30
41898;BME280;27576;53.366;-1.498;2022-09-16T00:19:45;100201.19;;;11.33;77.42
41898;BME280;27576;53.366;-1.498;2022-09-16T00:22:10;100240.22;;;11.52;78.57
41898;BME280;27576;53.366;-1.498;2022-09-16T00:24:36;100224.59;;;11.43;78.52
41898;BME280;27576;53.366;-1.498;2022-09-16T00:27:02;100232.38;;;11.43;78.74
41898;BME280;27576;53.366;-1.498;2022-09-16T00:29:27;100216.72;;;11.31;78.01
41898;BME280;27576;53.366;-1.498;2022-09-16T00:31:53;100240.19;;;11.45;79.22
41898;BME280;27576;53.366;-1.498;2022-09-16T00:34:18;100244.47;;;11.41;79.84
41898;BME280;27576;53.366;-1.498;2022-09-16T00:36:43;100218.41;;;11.23;79.65
41898;BME280;27576;53.366;-1.498;2022-09-16T00:39:09;100257.44;;;11.41;79.64
41898;BME280;27576;53.366;-1.498;2022-09-16T00:41:34;100261.75;;;11.39;79.49
41898;BME280;27576;53.366;-1.498;2022-09-16T00:44:06;100250.47;;;11.34;80.00
41898;BME280;27576;53.366;-1.498;2022-09-16T00:46:51;100250.47;;;11.34;79.55
41898;BME280;27576;53.366;-1.498;2022-09-16T00:49:24;100240.91;;;11.25;80.54
41898;BME280;27576;53.366;-1.498;2022-09-16T00:51:55;100250.44;;;11.31;80.37
41898;BME280;27576;53.366;-1.498;2022-09-16T00:54:22;100253.94;;;11.33;80.54
41898;BME280;27576;53.366;-1.498;2022-09-16T00:56:53;100261.69;;;11.31;80.48
41898;BME280;27576;53.366;-1.498;2022-09-16T00:59:25;100265.13;;;11.27;80.16
41898;BME280;27576;53.366;-1.498;2022-09-16T01:01:53;100254.72;;;11.21;80.44
41898;BME280;27576;53.366;-1.498;2022-09-16T01:04:21;100277.22;;;11.25;79.96
41898;BME280;27576;53.366;-1.498;2022-09-16T01:06:48;100273.72;;;11.20;80.54
41898;BME280;27576;53.366;-1.498;2022-09-16T01:09:15;100260.63;;;11.06;80.51
41898;BME280;27576;53.366;-1.498;2022-09-16T01:11:42;100264.13;;;11.09;80.64
41898;BME280;27576;53.366;-1.498;2022-09-16T01:14:07;100278.84;;;11.16;80.54
41898;BME280;27576;53.366;-1.498;2022-09-16T01:17:01;100283.19;;;11.15;80.91
41898;BME280;27576;53.366;-1.498;2022-09-16T01:20:00;100271.91;;;11.10;81.21
41898;BME280;27576;53.366;-1.498;2022-09-16T01:33:48;100266.66;;;11.04;80.54
41898;BME280;27576;53.366;-1.498;2022-09-16T01:37:34;100285.78;;;11.15;81.54
41898;BME280;27576;53.366;-1.498;2022-09-16T01:39:47;100278.00;;;11.12;80.12
41898;BME280;27576;53.366;-1.498;2022-09-16T01:45:09;100279.75;;;11.19;80.07
41898;BME280;27576;53.366;-1.498;2022-09-16T01:47:49;100269.31;;;11.10;79.80
41898;BME280;27576;53.366;-1.498;2022-09-16T01:50:42;100255.41;;;11.03;79.47
41898;BME280;27576;53.366;-1.498;2022-09-16T01:53:19;100284.97;;;11.21;79.73
41898;BME280;27576;53.366;-1.498;2022-09-16T01:55:58;100274.56;;;11.18;79.32
41898;BME280;27576;53.366;-1.498;2022-09-16T02:00:52;100278.91;;;11.20;78.84
41898;BME280;27576;53.366;-1.498;2022-09-16T02:03:27;100265.03;;;11.12;79.09
41898;BME280;27576;53.366;-1.498;2022-09-16T02:06:04;100256.34;;;11.09;79.67
41898;BME280;27576;53.366;-1.498;2022-09-16T02:11:01;100260.75;;;11.20;80.03
41898;BME280;27576;53.366;-1.498;2022-09-16T02:13:33;100265.13;;;11.27;80.06
41898;BME280;27576;53.366;-1.498;2022-09-16T02:16:28;100274.69;;;11.33;81.32
41898;BME280;27576;53.366;-1.498;2022-09-16T02:18:58;100232.13;;;11.05;80.31
41898;BME280;27576;53.366;-1.498;2022-09-16T02:21:28;100274.66;;;11.28;80.14
41898;BME280;27576;53.366;-1.498;2022-09-16T02:23:59;100273.72;;;11.22;80.59
41898;BME280;27576;53.366;-1.498;2022-09-16T02:26:28;100257.25;;;11.12;81.17
41898;BME280;27576;53.366;-1.498;2022-09-16T02:28:56;100277.19;;;11.22;80.43
41898;BME280;27576;53.366;-1.498;2022-09-16T02:31:29;100285.84;;;11.21;81.30
41898;BME280;27576;53.366;-1.498;2022-09-16T02:34:00;100290.16;;;11.21;80.51
41898;BME280;27576;53.366;-1.498;2022-09-16T02:36:27;100277.09;;;11.10;80.80
41898;BME280;27576;53.366;-1.498;2022-09-16T02:38:58;100260.59;;;11.03;81.33
41898;BME280;27576;53.366;-1.498;2022-09-16T02:41:25;100280.56;;;11.09;80.84
41898;BME280;27576;53.366;-1.498;2022-09-16T02:43:51;100254.47;;;10.94;80.85
41898;BME280;27576;53.366;-1.498;2022-09-16T02:46:25;100282.22;;;11.01;81.42
41898;BME280;27576;53.366;-1.498;2022-09-16T02:56:54;100286.34;;;10.84;81.80
41898;BME280;27576;53.366;-1.498;2022-09-16T02:59:21;100242.00;;;10.56;81.25
41898;BME280;27576;53.366;-1.498;2022-09-16T03:01:46;100262.81;;;10.62;81.37
41898;BME280;27576;53.366;-1.498;2022-09-16T03:04:17;100258.47;;;10.58;81.75
41898;BME280;27576;53.366;-1.498;2022-09-16T03:06:44;100262.81;;;10.64;82.11
41898;BME280;27576;53.366;-1.498;2022-09-16T03:09:14;100275.75;;;10.61;82.69
41898;BME280;27576;53.366;-1.498;2022-09-16T03:14:45;100281.75;;;10.55;84.51
41898;BME280;27576;53.366;-1.498;2022-09-16T03:20:38;100283.38;;;10.47;85.55
41898;BME280;27576;53.366;-1.498;2022-09-16T03:23:44;100277.28;;;10.42;84.74
41898;BME280;27576;53.366;-1.498;2022-09-16T03:29:14;100287.56;;;10.36;85.96
41898;BME280;27576;53.366;-1.498;2022-09-16T03:31:50;100263.19;;;10.20;85.83
41898;BME280;27576;53.366;-1.498;2022-09-16T03:34:25;100290.13;;;10.32;85.69
41898;BME280;27576;53.366;-1.498;2022-09-16T03:36:59;100283.19;;;10.31;85.53
41898;BME280;27576;53.366;-1.498;2022-09-16T03:39:26;100294.47;;;10.35;85.10
41898;BME280;27576;53.366;-1.498;2022-09-16T03:41:52;100295.28;;;10.32;86.01
41898;BME280;27576;53.366;-1.498;2022-09-16T03:44:19;100269.22;;;10.19;85.66
41898;BME280;27576;53.366;-1.498;2022-09-16T03:46:45;100298.75;;;10.31;85.87
41898;BME280;27576;53.366;-1.498;2022-09-16T03:49:11;100303.91;;;10.31;86.26
41898;BME280;27576;53.366;-1.498;2022-09-16T03:51:36;100290.97;;;10.33;86.24
41898;BME280;27576;53.366;-1.498;2022-09-16T03:54:02;100295.28;;;10.32;87.33
41898;BME280;27576;53.366;-1.498;2022-09-16T03:56:27;100274.41;;;10.20;87.42
41898;BME280;27576;53.366;-1.498;2022-09-16T03:58:53;100302.25;;;10.37;87.07
41898;BME280;27576;53.366;-1.498;2022-09-16T04:01:18;100268.34;;;10.21;86.91
41898;BME280;27576;53.366;-1.498;2022-09-16T04:03:44;100277.97;;;10.28;87.37
41898;BME280;27576;53.366;-1.498;2022-09-16T04:06:09;100290.25;;;10.42;86.97
41898;BME280;27576;53.366;-1.498;2022-09-16T04:08:35;100272.84;;;10.30;86.71
41898;BME280;27576;53.366;-1.498;2022-09-16T04:11:03;100272.03;;;10.34;87.35
41898;BME280;27576;53.366;-1.498;2022-09-16T04:13:33;100293.78;;;10.53;86.72
41898;BME280;27576;53.366;-1.498;2022-09-16T04:15:59;100287.78;;;10.54;86.59
41898;BME280;27576;53.366;-1.498;2022-09-16T04:18:25;100264.34;;;10.42;86.66
41898;BME280;27576;53.366;-1.498;2022-09-16T04:20:55;100283.47;;;10.54;86.77
41898;BME280;27576;53.366;-1.498;2022-09-16T04:23:23;100300.81;;;10.63;86.36
41898;BME280;27576;53.366;-1.498;2022-09-16T04:25:56;100303.50;;;10.69;85.43
41898;BME280;27576;53.366;-1.498;2022-09-16T04:28:22;100282.59;;;10.57;85.87
41898;BME280;27576;53.366;-1.498;2022-09-16T04:30:47;100273.06;;;10.50;84.60
41898;BME280;27576;53.366;-1.498;2022-09-16T04:33:13;100296.50;;;10.64;85.29
41898;BME280;27576;53.366;-1.498;2022-09-16T04:35:38;100301.75;;;10.68;85.01
41898;BME280;27576;53.366;-1.498;2022-09-16T04:38:04;100277.47;;;10.60;84.28
41898;BME280;27576;53.366;-1.498;2022-09-16T04:40:29;100300.00;;;10.69;84.80
41898;BME280;27576;53.366;-1.498;2022-09-16T04:42:54;100317.41;;;10.79;84.90
41898;BME280;27576;53.366;-1.498;2022-09-16T04:45:20;100322.59;;;10.80;85.01
41898;BME280;27576;53.366;-1.498;2022-09-16T04:47:45;100299.16;;;10.68;85.15
41898;BME280;27576;53.366;-1.498;2022-09-16T04:50:11;100286.16;;;10.62;84.25
41898;BME280;27576;53.366;-1.498;2022-09-16T04:52:36;100323.50;;;10.84;84.87
41898;BME280;27576;53.366;-1.498;2022-09-16T04:55:02;100300.94;;;10.75;83.74
41898;BME280;27576;53.366;-1.498;2022-09-16T04:57:31;100319.22;;;10.85;84.84
41898;BME280;27576;53.366;-1.498;2022-09-16T04:59:59;100313.09;;;10.78;84.10
41898;BME280;27576;53.366;-1.498;2022-09-16T05:02:24;100326.09;;;10.84;84.48
41898;BME280;27576;53.366;-1.498;2022-09-16T05:04:50;100303.53;;;10.75;84.41
41898;BME280;27576;53.366;-1.498;2022-09-16T05:07:15;100321.78;;;10.81;83.88
41898;BME280;27576;53.366;-1.498;2022-09-16T05:09:41;100301.75;;;10.67;82.51
41898;BME280;27576;53.366;-1.498;2022-09-16T05:12:07;100330.44;;;10.85;82.20
41898;BME280;27576;53.366;-1.498;2022-09-16T05:14:33;100300.00;;;10.67;81.61
41898;BME280;27576;53.366;-1.498;2022-09-16T05:16:58;100313.94;;;10.77;82.19
41898;BME280;27576;53.366;-1.498;2022-09-16T05:19:23;100289.56;;;10.60;82.41
41898;BME280;27576;53.366;-1.498;2022-09-16T05:21:49;100328.72;;;10.86;81.89
41898;BME280;27576;53.366;-1.498;2022-09-16T05:24:14;100334.78;;;10.86;80.57
41898;BME280;27576;53.366;-1.498;2022-09-16T05:26:41;100334.78;;;10.86;81.18
41898;BME280;27576;53.366;-1.498;2022-09-16T05:29:13;100324.31;;;10.77;81.12
41898;BME280;27576;53.366;-1.498;2022-09-16T05:31:41;100332.97;;;10.79;79.92
41898;BME280;27576;53.366;-1.498;2022-09-16T05:34:18;100338.19;;;10.82;79.62
41898;BME280;27576;53.366;-1.498;2022-09-16T05:36:45;100324.19;;;10.68;79.42
41898;BME280;27576;53.366;-1.498;2022-09-16T05:39:12;100346.81;;;10.81;80.85
41898;BME280;27576;53.366;-1.498;2022-09-16T05:41:39;100347.66;;;10.80;80.99
41898;BME280;27576;53.366;-1.498;2022-09-16T05:44:05;100325.00;;;10.62;80.62
41898;BME280;27576;53.366;-1.498;2022-09-16T05:46:31;100357.13;;;10.76;81.27
41898;BME280;27576;53.366;-1.498;2022-09-16T05:48:57;100353.59;;;10.71;81.45
41898;BME280;27576;53.366;-1.498;2022-09-16T05:51:24;100358.75;;;10.68;81.13
41898;BME280;27576;53.366;-1.498;2022-09-16T05:53:51;100347.47;;;10.63;81.53
41898;BME280;27576;53.366;-1.498;2022-09-16T05:58:43;100337.78;;;10.48;80.77
41898;BME280;27576;53.366;-1.498;2022-09-16T06:03:40;100370.66;;;10.52;81.69
41898;BME280;27576;53.366;-1.498;2022-09-16T06:06:11;100373.25;;;10.51;82.31
41898;BME280;27576;53.366;-1.498;2022-09-16T06:08:37;100349.72;;;10.36;82.36
41898;BME280;27576;53.366;-1.498;2022-09-16T06:11:05;100368.88;;;10.45;82.86
41898;BME280;27576;53.366;-1.498;2022-09-16T06:13:30;100377.47;;;10.44;83.36
41898;BME280;27576;53.366;-1.498;2022-09-16T06:15:56;100378.31;;;10.43;83.06
41898;BME280;27576;53.366;-1.498;2022-09-16T06:18:25;100375.72;;;10.43;84.08
41898;BME280;27576;53.366;-1.498;2022-09-16T06:20:51;100375.69;;;10.40;84.01
41898;BME280;27576;53.366;-1.498;2022-09-16T06:23:17;100379.13;;;10.39;84.04
41898;BME280;27576;53.366;-1.498;2022-09-16T06:25:43;100381.72;;;10.38;84.33
41898;BME280;27576;53.366;-1.498;2022-09-16T06:28:09;100388.63;;;10.39;84.10
41898;BME280;27576;53.366;-1.498;2022-09-16T06:30:37;100375.53;;;10.29;84.96
41898;BME280;27576;53.366;-1.498;2022-09-16T06:33:03;100377.16;;;10.24;84.43
41898;BME280;27576;53.366;-1.498;2022-09-16T06:35:29;100388.53;;;10.32;84.12
41898;BME280;27576;53.366;-1.498;2022-09-16T06:37:54;100393.75;;;10.36;84.51
41898;BME280;27576;53.366;-1.498;2022-09-16T06:40:20;100406.72;;;10.36;84.59
41898;BME280;27576;53.366;-1.498;2022-09-16T06:42:45;100381.47;;;10.22;83.26
41898;BME280;27576;53.366;-1.498;2022-09-16T06:45:11;100377.13;;;10.20;82.94
41898;BME280;27576;53.366;-1.498;2022-09-16T06:47:36;100355.44;;;10.13;84.06
41898;BME280;27576;53.366;-1.498;2022-09-16T06:50:02;100396.41;;;10.40;83.37
41898;BME280;27576;53.366;-1.498;2022-09-16T06:52:29;100381.63;;;10.31;83.90
41898;BME280;27576;53.366;-1.498;2022-09-16T06:54:55;100412.97;;;10.51;83.48
41898;BME280;27576;53.366;-1.498;2022-09-16T06:57:20;100413.88;;;10.55;83.34
41898;BME280;27576;53.366;-1.498;2022-09-16T06:59:50;100400.94;;;10.55;82.99
41898;BME280;27576;53.366;-1.498;2022-09-16T07:02:17;100404.44;;;10.59;81.56
41898;BME280;27576;53.366;-1.498;2022-09-16T07:04:43;100383.66;;;10.54;80.78
41898;BME280;27576;53.366;-1.498;2022-09-16T07:07:08;100397.56;;;10.64;81.20
41898;BME280;27576;53.366;-1.498;2022-09-16T07:09:33;100419.31;;;10.76;81.68
41898;BME280;27576;53.366;-1.498;2022-09-16T07:12:00;100427.28;;;10.92;80.97
41898;BME280;27576;53.366;-1.498;2022-09-16T07:14:26;100416.13;;;10.99;80.82
41898;BME280;27576;53.366;-1.498;2022-09-16T07:16:52;100384.03;;;10.85;80.56
41898;BME280;27576;53.366;-1.498;2022-09-16T07:19:17;100421.41;;;11.06;80.66
41898;BME280;27576;53.366;-1.498;2022-09-16T07:21:43;100385.84;;;10.95;79.85
41898;BME280;27576;53.366;-1.498;2022-09-16T07:24:11;100430.38;;;11.39;78.67
41898;BME280;27576;53.366;-1.498;2022-09-16T07:26:38;100419.25;;;11.48;78.75
41898;BME280;27576;53.366;-1.498;2022-09-16T07:29:05;100420.97;;;11.50;77.10
41898;BME280;27576;53.366;-1.498;2022-09-16T07:31:34;100417.56;;;11.54;76.71
41898;BME280;27576;53.366;-1.498;2022-09-16T07:34:01;100432.28;;;11.59;76.94
41898;BME280;27576;53.366;-1.498;2022-09-16T07:36:29;100427.09;;;11.57;73.32
41898;BME280;27576;53.366;-1.498;2022-09-16T07:38:56;100437.50;;;11.59;74.77
41898;BME280;27576;53.366;-1.498;2022-09-16T07:41:28;100410.53;;;11.43;74.88
41898;BME280;27576;53.366;-1.498;2022-09-16T07:43:56;100410.59;;;11.49;74.81
41898;BME280;27576;53.366;-1.498;2022-09-16T07:46:24;100438.47;;;11.68;74.63
41898;BME280;27576;53.366;-1.498;2022-09-16T07:48:50;100428.06;;;11.68;73.15
41898;BME280;27576;53.366;-1.498;2022-09-16T07:51:21;100438.63;;;11.84;74.22
41898;BME280;27576;53.366;-1.498;2022-09-16T07:53:47;100456.88;;;11.91;73.63
41898;BME280;27576;53.366;-1.498;2022-09-16T07:56:18;100431.56;;;11.73;70.35
41898;BME280;27576;53.366;-1.498;2022-09-16T07:58:45;100451.63;;;11.90;71.43
41898;BME280;27576;53.366;-1.498;2022-09-16T08:01:12;100435.16;;;11.83;71.20
41898;BME280;27576;53.366;-1.498;2022-09-16T08:03:39;100472.50;;;12.02;69.59
41898;BME280;27576;53.366;-1.498;2022-09-16T08:06:08;100469.09;;;12.08;69.28
41898;BME280;27576;53.366;-1.498;2022-09-16T08:08:34;100454.34;;;12.05;68.64
41898;BME280;27576;53.366;-1.498;2022-09-16T08:11:00;100471.75;;;12.17;69.13
41898;BME280;27576;53.366;-1.498;2022-09-16T08:13:28;100478.78;;;12.28;68.69
41898;BME280;27576;53.366;-1.498;2022-09-16T08:15:58;100489.22;;;12.38;68.16
41898;BME280;27576;53.366;-1.498;2022-09-16T08:18:23;100475.38;;;12.36;66.95
41898;BME280;27576;53.366;-1.498;2022-09-16T08:20:49;100488.41;;;12.45;65.95
41898;BME280;27576;53.366;-1.498;2022-09-16T08:23:14;100487.59;;;12.50;66.37
41898;BME280;27576;53.366;-1.498;2022-09-16T08:25:39;100493.69;;;12.54;65.89
41898;BME280;27576;53.366;-1.498;2022-09-16T08:28:12;100501.56;;;12.66;65.33
41898;BME280;27576;53.366;-1.498;2022-09-16T08:30:37;100494.63;;;12.68;65.51
41898;BME280;27576;53.366;-1.498;2022-09-16T08:33:03;100484.25;;;12.71;63.96
41898;BME280;27576;53.366;-1.498;2022-09-16T08:35:28;100505.06;;;12.76;63.57
41898;BME280;27576;53.366;-1.498;2022-09-16T08:37:54;100486.81;;;12.67;64.66
41898;BME280;27576;53.366;-1.498;2022-09-16T08:40:22;100495.56;;;12.78;64.40
41898;BME280;27576;53.366;-1.498;2022-09-16T08:43:01;100489.47;;;12.74;61.88
41898;BME280;27576;53.366;-1.498;2022-09-16T08:50:58;100519.94;;;13.05;62.92
41898;BME280;27576;53.366;-1.498;2022-09-16T08:53:37;100502.56;;;12.99;61.34
41898;BME280;27576;53.366;-1.498;2022-09-16T08:56:10;100519.97;;;13.11;61.46
41898;BME280;27576;53.366;-1.498;2022-09-16T08:58:48;100532.22;;;13.30;60.80
41898;BME280;27576;53.366;-1.498;2022-09-16T09:04:01;100514.03;;;13.39;61.11
41898;BME280;27576;53.366;-1.498;2022-09-16T09:26:19;100534.09;;;13.77;59.23
41898;BME280;27576;53.366;-1.498;2022-09-16T09:31:58;100544.47;;;13.57;56.99
41898;BME280;27576;53.366;-1.498;2022-09-16T09:40:16;100527.13;;;13.56;58.31
41898;BME280;27576;53.366;-1.498;2022-09-16T09:45:29;100538.47;;;14.04;57.91
41898;BME280;27576;53.366;-1.498;2022-09-16T09:50:41;100536.72;;;14.06;57.36
41898;BME280;27576;53.366;-1.498;2022-09-16T09:53:17;100544.53;;;13.97;57.62
41898;BME280;27576;53.366;-1.498;2022-09-16T09:55:44;100540.22;;;14.20;58.25
41898;BME280;27576;53.366;-1.498;2022-09-16T09:58:26;100549.81;;;14.51;56.00
41898;BME280;27576;53.366;-1.498;2022-09-16T10:00:53;100547.13;;;14.80;56.55
41898;BME280;27576;53.366;-1.498;2022-09-16T10:03:22;100547.97;;;14.92;56.62
41898;BME280;27576;53.366;-1.498;2022-09-16T10:05:47;100547.13;;;14.86;55.89
41898;BME280;27576;53.366;-1.498;2022-09-16T10:10:51;100552.38;;;14.37;55.67
41898;BME280;27576;53.366;-1.498;2022-09-16T10:13:18;100534.13;;;14.09;55.82
41898;BME280;27576;53.366;-1.498;2022-09-16T10:15:45;100538.50;;;14.27;56.00
41898;BME280;27576;53.366;-1.498;2022-09-16T10:18:13;100538.47;;;14.38;54.68
41898;BME280;27576;53.366;-1.498;2022-09-16T10:20:42;100555.00;;;14.57;54.59
41898;BME280;27576;53.366;-1.498;2022-09-16T10:23:14;100549.78;;;14.54;54.84
41898;BME280;27576;53.366;-1.498;2022-09-16T10:25:42;100552.38;;;14.37;54.08
41898;BME280;27576;53.366;-1.498;2022-09-16T10:28:22;100552.38;;;14.35;55.51
41898;BME280;27576;53.366;-1.498;2022-09-16T10:30:53;100519.38;;;14.31;53.70
41898;BME280;27576;53.366;-1.498;2022-09-16T10:33:40;100541.94;;;14.72;56.94
41898;BME280;27576;53.366;-1.498;2022-09-16T10:36:18;100556.69;;;14.88;53.30
41898;BME280;27576;53.366;-1.498;2022-09-16T10:38:53;100519.31;;;14.79;53.46
41898;BME280;27576;53.366;-1.498;2022-09-16T10:41:23;100553.94;;;15.27;52.83
41898;BME280;27576;53.366;-1.498;2022-09-16T10:43:53;100544.22;;;15.61;52.14
41898;BME280;27576;53.366;-1.498;2022-09-16T10:46:20;100546.75;;;15.81;51.92
41898;BME280;27576;53.366;-1.498;2022-09-16T10:48:47;100554.63;;;15.64;50.61
41898;BME280;27576;53.366;-1.498;2022-09-16T10:51:34;100555.59;;;15.49;49.68
41898;BME280;27576;53.366;-1.498;2022-09-16T10:54:01;100545.19;;;15.41;50.97
41898;BME280;27576;53.366;-1.498;2022-09-16T10:56:32;100563.47;;;15.41;50.48
41898;BME280;27576;53.366;-1.498;2022-09-16T10:59:09;100563.53;;;15.26;50.69
41898;BME280;27576;53.366;-1.498;2022-09-16T11:04:34;100573.16;;;15.01;52.78
41898;BME280;27576;53.366;-1.498;2022-09-16T11:07:11;100544.53;;;14.75;51.98
41898;BME280;27576;53.366;-1.498;2022-09-16T11:09:53;100576.69;;;14.88;51.45
41898;BME280;27576;53.366;-1.498;2022-09-16T11:15:55;100574.13;;;14.66;51.76
41898;BME280;27576;53.366;-1.498;2022-09-16T11:18:59;100542.81;;;14.57;52.64
41898;BME280;27576;53.366;-1.498;2022-09-16T11:24:24;100576.63;;;15.11;50.68
41898;BME280;27576;53.366;-1.498;2022-09-16T11:27:14;100577.50;;;15.08;51.59
41898;BME280;27576;53.366;-1.498;2022-09-16T11:29:50;100575.78;;;14.96;50.97
41898;BME280;27576;53.366;-1.498;2022-09-16T11:35:25;100583.63;;;15.03;51.22
41898;BME280;27576;53.366;-1.498;2022-09-16T11:38:14;100576.50;;;15.40;51.20
41898;BME280;27576;53.366;-1.498;2022-09-16T11:40:46;100575.50;;;15.75;51.08
41898;BME280;27576;53.366;-1.498;2022-09-16T11:57:15;100561.94;;;16.47;47.18
41898;BME280;27576;53.366;-1.498;2022-09-16T12:02:27;100572.94;;;17.56;44.16
41898;BME280;27576;53.366;-1.498;2022-09-16T12:07:41;100575.41;;;18.81;41.22
41898;BME280;27576;53.366;-1.498;2022-09-16T12:10:25;100552.13;;;19.09;39.60
41898;BME280;27576;53.366;-1.498;2022-09-16T12:12:59;100571.75;;;18.90;39.86
41898;BME280;27576;53.366;-1.498;2022-09-16T12:15:34;100577.94;;;18.35;40.79
41898;BME280;27576;53.366;-1.498;2022-09-16T12:18:10;100556.69;;;18.50;42.75
41898;BME280;27576;53.366;-1.498;2022-09-16T12:20:52;100556.75;;;19.42;42.19
41898;BME280;27576;53.366;-1.498;2022-09-16T12:23:23;100570.97;;;20.46;37.56
41898;BME280;27576;53.366;-1.498;2022-09-16T12:26:05;100573.94;;;21.33;38.51
41898;BME280;27576;53.366;-1.498;2022-09-16T12:31:29;100563.34;;;22.49;34.58
41898;BME280;27576;53.366;-1.498;2022-09-16T12:34:02;100570.13;;;22.56;33.64
41898;BME280;27576;53.366;-1.498;2022-09-16T12:36:31;100575.84;;;22.69;34.55
41898;BME280;27576;53.366;-1.498;2022-09-16T12:38:57;100555.00;;;22.06;33.06
41898;BME280;27576;53.366;-1.498;2022-09-16T12:44:23;100576.44;;;21.68;35.36
41898;BME280;27576;53.366;-1.498;2022-09-16T12:49:59;100570.25;;;23.51;32.83
41898;BME280;27576;53.366;-1.498;2022-09-16T12:55:42;100565.66;;;25.06;29.91
41898;BME280;27576;53.366;-1.498;2022-09-16T12:58:27;100567.84;;;25.56;28.64
41898;BME280;27576;53.366;-1.498;2022-09-16T13:03:45;100581.22;;;23.41;30.34
41898;BME280;27576;53.366;-1.498;2022-09-16T13:08:50;100584.25;;;21.41;33.64
41898;BME280;27576;53.366;-1.498;2022-09-16T13:11:28;100600.28;;;21.65;33.49
41898;BME280;27576;53.366;-1.498;2022-09-16T13:13:57;100564.38;;;21.89;33.66
41898;BME280;27576;53.366;-1.498;2022-09-16T13:16:35;100595.66;;;22.55;29.87
41898;BME280;27576;53.366;-1.498;2022-09-16T13:21:43;100587.34;;;22.15;30.58
41898;BME280;27576;53.366;-1.498;2022-09-16T13:26:43;100602.88;;;21.02;32.17
41898;BME280;27576;53.366;-1.498;2022-09-16T13:29:37;100597.25;;;21.77;32.94
41898;BME280;27576;53.366;-1.498;2022-09-16T13:32:03;100582.88;;;22.17;31.63
41898;BME280;27576;53.366;-1.498;2022-09-16T13:34:29;100592.09;;;21.74;30.55
41898;BME280;27576;53.366;-1.498;2022-09-16T13:36:55;100610.88;;;21.32;31.33
41898;BME280;27576;53.366;-1.498;2022-09-16T13:39:30;100603.88;;;20.98;31.13
41898;BME280;27576;53.366;-1.498;2022-09-16T13:41:56;100596.97;;;21.58;32.16
41898;BME280;27576;53.366;-1.498;2022-09-16T13:49:35;100593.66;;;23.86;26.49
41898;BME280;27576;53.366;-1.498;2022-09-16T13:54:56;100597.91;;;23.18;29.46
41898;BME280;27576;53.366;-1.498;2022-09-16T13:57:25;100591.53;;;23.00;30.51
41898;BME280;27576;53.366;-1.498;2022-09-16T14:00:08;100591.13;;;23.11;28.05
41898;BME280;27576;53.366;-1.498;2022-09-16T14:05:14;100598.81;;;22.12;28.16
41898;BME280;27576;53.366;-1.498;2022-09-16T14:13:13;100607.47;;;20.96;30.37
41898;BME280;27576;53.366;-1.498;2022-09-16T14:15:43;100589.38;;;21.47;30.94
41898;BME280;27576;53.366;-1.498;2022-09-16T14:18:12;100586.31;;;22.19;31.03
41898;BME280;27576;53.366;-1.498;2022-09-16T14:20:53;100585.78;;;22.87;28.34
41898;BME280;27576;53.366;-1.498;2022-09-16T14:23:22;100578.84;;;23.33;28.68
41898;BME280;27576;53.366;-1.498;2022-09-16T14:25:48;100592.63;;;23.43;28.40
41898;BME280;27576;53.366;-1.498;2022-09-16T14:30:54;100591.09;;;22.61;28.21
41898;BME280;27576;53.366;-1.498;2022-09-16T14:33:23;100583.09;;;22.09;30.18
41898;BME280;27576;53.366;-1.498;2022-09-16T14:35:51;100597.28;;;21.47;29.88
41898;BME280;27576;53.366;-1.498;2022-09-16T14:38:19;100608.50;;;20.90;31.33
41898;BME280;27576;53.366;-1.498;2022-09-16T14:40:45;100606.09;;;21.14;31.51
41898;BME280;27576;53.366;-1.498;2022-09-16T14:43:19;100594.97;;;21.66;30.70
41898;BME280;27576;53.366;-1.498;2022-09-16T14:45:49;100580.34;;;22.14;30.80
41898;BME280;27576;53.366;-1.498;2022-09-16T14:48:17;100591.00;;;22.64;29.35
41898;BME280;27576;53.366;-1.498;2022-09-16T14:50:49;100596.41;;;23.36;28.45
41898;BME280;27576;53.366;-1.498;2022-09-16T14:53:24;100610.28;;;23.66;26.60
41898;BME280;27576;53.366;-1.498;2022-09-16T14:55:50;100606.53;;;22.99;27.35
41898;BME280;27576;53.366;-1.498;2022-09-16T14:58:15;100617.75;;;22.26;27.59
41898;BME280;27576;53.366;-1.498;2022-09-16T15:00:48;100632.97;;;21.59;28.30
41898;BME280;27576;53.366;-1.498;2022-09-16T15:03:16;100625.00;;;20.97;29.68
41898;BME280;27576;53.366;-1.498;2022-09-16T15:05:45;100612.00;;;21.23;29.34
41898;BME280;27576;53.366;-1.498;2022-09-16T15:11:09;100609.44;;;23.40;26.61
41898;BME280;27576;53.366;-1.498;2022-09-16T15:13:37;100610.75;;;23.99;25.57
41898;BME280;27576;53.366;-1.498;2022-09-16T15:18:36;100623.34;;;22.70;26.73
41898;BME280;27576;53.366;-1.498;2022-09-16T15:21:09;100634.88;;;21.84;27.75
41898;BME280;27576;53.366;-1.498;2022-09-16T15:23:36;100628.16;;;21.11;28.85
41898;BME280;27576;53.366;-1.498;2022-09-16T15:26:30;100566.91;;;19.97;29.25
41898;BME280;27576;53.366;-1.498;2022-09-16T15:29:26;100583.88;;;19.42;29.93
41898;BME280;27576;53.366;-1.498;2022-09-16T15:31:52;100613.75;;;19.38;31.90
41898;BME280;27576;53.366;-1.498;2022-09-16T15:34:21;100632.19;;;19.35;31.12
41898;BME280;27576;53.366;-1.498;2022-09-16T15:39:39;100634.63;;;19.44;31.50
41898;BME280;27576;53.366;-1.498;2022-09-16T15:42:12;100614.19;;;19.13;31.56